Time;durP1;ratioP1;P1;durP2;ratioP2;P2;SDS_P1;SDS_P2;PMS_P1;PMS_P2;Temp;Humidity;BMP_temperature;BMP_pressure;BME280_temperature;BME280_humidity;BME280_pressure;Samples;Min_cycle;Max_cycle;Signal;HPM_P1;HPM_P2
2023/09/20 00:02:31;;;;;;;3.20;1.37;;;23.40;85.10;;;;;;10787042;33;20020;-77
2023/09/20 00:08:35;;;;;;;3.10;1.70;;;23.40;84.90;;;;;;10776372;33;20021;-77
2023/09/20 00:14:37;;;;;;;7.65;1.70;;;23.40;84.80;;;;;;10793255;33;20031;-77
2023/09/20 00:20:39;;;;;;;2.47;1.50;;;23.30;84.80;;;;;;10789015;33;20064;-77
2023/09/20 00:26:42;;;;;;;3.15;1.23;;;23.30;84.80;;;;;;10793047;33;20043;-77
2023/09/20 00:32:44;;;;;;;1.90;1.25;;;23.30;84.70;;;;;;10793653;33;20025;-77
2023/09/20 00:38:51;;;;;;;1.90;1.00;;;23.30;84.80;;;;;;10788860;33;20338;-78
2023/09/20 00:44:53;;;;;;;1.80;0.98;;;23.20;84.80;;;;;;10792977;33;20039;-77
2023/09/20 00:50:56;;;;;;;3.17;1.55;;;23.20;84.80;;;;;;10792260;33;20017;-77
2023/09/20 00:56:58;;;;;;;2.53;1.35;;;23.20;85.00;;;;;;10793292;33;20028;-77
2023/09/20 01:03:01;;;;;;;1.95;1.15;;;23.10;85.00;;;;;;10792474;33;20374;-77
2023/09/20 01:09:04;;;;;;;1.62;0.93;;;23.10;85.10;;;;;;10790723;33;20036;-77
2023/09/20 01:15:07;;;;;;;1.35;0.90;;;23.10;85.10;;;;;;10791484;33;20015;-77
2023/09/20 01:21:11;;;;;;;3.70;1.48;;;23.00;85.00;;;;;;10793068;33;20136;-77
2023/09/20 01:27:14;;;;;;;1.52;1.02;;;23.00;84.90;;;;;;10791759;33;20402;-78
2023/09/20 01:33:16;;;;;;;3.08;0.93;;;23.00;85.00;;;;;;10791116;33;20020;-77
2023/09/20 01:39:18;;;;;;;2.97;1.27;;;22.90;85.20;;;;;;10787683;33;20028;-77
2023/09/20 01:45:21;;;;;;;2.17;1.15;;;22.90;85.30;;;;;;10789580;33;20358;-77
2023/09/20 01:51:23;;;;;;;3.28;1.50;;;22.90;85.20;;;;;;10789537;33;20021;-77
2023/09/20 01:57:25;;;;;;;0.82;0.73;;;22.90;85.10;;;;;;10790913;33;20428;-77
2023/09/20 02:03:27;;;;;;;1.23;0.75;;;22.90;85.20;;;;;;10790237;33;20043;-77
2023/09/20 02:09:29;;;;;;;4.62;1.58;;;22.80;85.30;;;;;;10790050;33;20056;-77
2023/09/20 02:15:36;;;;;;;1.80;1.23;;;22.80;85.20;;;;;;10789719;33;20040;-77
2023/09/20 02:21:38;;;;;;;2.08;1.10;;;22.80;85.20;;;;;;10790097;33;20268;-77
2023/09/20 02:27:42;;;;;;;5.05;1.30;;;22.80;85.00;;;;;;10790019;33;20071;-77
2023/09/20 02:33:45;;;;;;;1.80;0.93;;;22.80;85.10;;;;;;10789404;33;20043;-77
2023/09/20 02:39:47;;;;;;;2.08;1.23;;;22.70;85.00;;;;;;10789039;33;20024;-77
2023/09/20 02:45:49;;;;;;;1.90;1.27;;;22.60;84.90;;;;;;10787392;33;20094;-76
2023/09/20 02:51:52;;;;;;;3.55;1.37;;;22.50;85.00;;;;;;10788709;33;20333;-77
2023/09/20 02:57:54;;;;;;;3.40;1.75;;;22.40;85.00;;;;;;10786219;33;20028;-77
2023/09/20 03:03:56;;;;;;;2.50;1.48;;;22.40;84.90;;;;;;10788486;33;20016;-77
2023/09/20 03:09:59;;;;;;;3.15;1.60;;;22.40;85.00;;;;;;10788251;33;20202;-77
2023/09/20 03:16:01;;;;;;;1.30;0.90;;;22.50;85.10;;;;;;10788196;33;20020;-77
2023/09/20 03:22:06;;;;;;;2.28;1.30;;;22.40;84.90;;;;;;10789157;33;20024;-77
2023/09/20 03:28:09;;;;;;;4.10;1.77;;;22.40;84.80;;;;;;10787891;33;20433;-77
2023/09/20 03:34:14;;;;;;;2.50;1.30;;;22.30;84.70;;;;;;10786977;33;20047;-77
2023/09/20 03:40:20;;;;;;;2.58;1.20;;;22.30;84.70;;;;;;10787587;33;20020;-77
2023/09/20 03:46:22;;;;;;;3.17;1.48;;;22.20;84.70;;;;;;10791489;33;20032;-77
2023/09/20 03:52:25;;;;;;;4.45;1.65;;;22.10;84.80;;;;;;10794028;33;20016;-77
2023/09/20 03:58:27;;;;;;;3.33;1.87;;;22.10;84.80;;;;;;10793201;33;20039;-77
2023/09/20 04:04:29;;;;;;;2.90;1.85;;;22.10;84.90;;;;;;10794117;33;20361;-77
2023/09/20 04:10:33;;;;;;;2.22;1.15;;;22.10;84.80;;;;;;10794077;33;20417;-77
2023/09/20 04:16:39;;;;;;;3.08;1.60;;;22.00;85.00;;;;;;10791100;33;20024;-76
2023/09/20 04:22:42;;;;;;;3.67;1.25;;;22.00;85.50;;;;;;10793659;33;20016;-76
2023/09/20 04:28:44;;;;;;;4.85;1.75;;;22.00;85.60;;;;;;10794139;33;20012;-76
2023/09/20 04:34:46;;;;;;;3.58;1.58;;;22.00;85.40;;;;;;10792639;33;20012;-77
2023/09/20 04:40:49;;;;;;;2.12;1.42;;;22.00;85.30;;;;;;10792517;33;20020;-77
2023/09/20 04:46:51;;;;;;;1.87;1.40;;;22.00;85.40;;;;;;10791075;33;20028;-77
2023/09/20 04:52:54;;;;;;;1.80;1.50;;;21.90;85.30;;;;;;10791723;33;20024;-77
2023/09/20 04:58:57;;;;;;;3.30;1.83;;;21.80;85.30;;;;;;10792695;33;20437;-77
2023/09/20 05:05:04;;;;;;;7.60;2.08;;;21.80;85.30;;;;;;10791589;33;20055;-77
2023/09/20 05:11:10;;;;;;;2.22;1.60;;;21.80;85.20;;;;;;10791386;33;20434;-77
2023/09/20 05:17:14;;;;;;;5.43;2.22;;;21.80;85.20;;;;;;10792130;33;20330;-77
2023/09/20 05:23:17;;;;;;;2.92;1.50;;;21.80;85.00;;;;;;10773820;33;20055;-77
2023/09/20 05:29:19;;;;;;;2.40;1.67;;;21.80;84.90;;;;;;10790149;33;20009;-77
2023/09/20 05:35:21;;;;;;;3.40;1.80;;;21.90;85.10;;;;;;10789110;33;20051;-77
2023/09/20 05:41:29;;;;;;;8.88;1.90;;;21.90;85.10;;;;;;10790426;33;20028;-77
2023/09/20 05:47:33;;;;;;;3.08;1.40;;;21.90;85.00;;;;;;10791284;33;20407;-77
2023/09/20 05:53:35;;;;;;;3.15;1.40;;;22.00;85.00;;;;;;10790145;33;20046;-77
2023/09/20 05:59:37;;;;;;;2.75;1.75;;;22.00;85.50;;;;;;10789771;33;20028;-77
2023/09/20 06:05:39;;;;;;;2.78;1.58;;;22.10;85.50;;;;;;10787585;33;20205;-77
2023/09/20 06:11:41;;;;;;;1.65;1.20;;;22.20;85.30;;;;;;10788924;33;20025;-77
2023/09/20 06:17:47;;;;;;;5.20;1.58;;;22.30;85.40;;;;;;10789918;33;20009;-77
2023/09/20 06:23:49;;;;;;;2.65;0.98;;;22.30;85.70;;;;;;10787314;33;20056;-77
2023/09/20 06:29:52;;;;;;;4.80;1.85;;;22.30;85.90;;;;;;10927188;32;20023;-77
2023/09/20 06:35:55;;;;;;;4.10;1.75;;;22.30;85.80;;;;;;10940635;32;20387;-76
2023/09/20 06:41:58;;;;;;;2.00;1.00;;;22.40;85.80;;;;;;10939130;32;20018;-76
2023/09/20 06:48:02;;;;;;;5.87;1.80;;;22.50;85.60;;;;;;10594720;27;10915297;-77
2023/09/20 06:54:04;;;;;;;2.72;1.73;;;22.60;85.50;;;;;;10889115;32;20023;-76
2023/09/20 07:00:21;;;;;;;2.92;1.42;;;22.70;85.80;;;;;;10901280;32;20461;-77
2023/09/20 07:06:24;;;;;;;3.62;1.62;;;22.70;85.70;;;;;;10793485;32;20028;-77
2023/09/20 07:12:28;;;;;;;3.37;2.20;;;22.80;85.70;;;;;;10751637;33;20025;-77
2023/09/20 07:18:35;;;;;;;1.55;1.05;;;22.80;85.70;;;;;;10751000;33;20048;-78
2023/09/20 07:24:38;;;;;;;1.93;1.07;;;22.80;85.60;;;;;;10751941;33;20016;-78
2023/09/20 07:30:40;;;;;;;3.03;1.70;;;23.00;85.50;;;;;;10750942;33;20367;-77
2023/09/20 07:36:49;;;;;;;5.07;1.65;;;23.00;85.30;;;;;;10748261;33;20043;-77
2023/09/20 07:42:51;;;;;;;2.55;1.33;;;23.20;85.20;;;;;;10750824;33;20035;-79
2023/09/20 07:48:53;;;;;;;1.80;1.12;;;23.30;84.80;;;;;;10750986;33;20016;-78
2023/09/20 07:54:55;;;;;;;5.72;2.03;;;23.30;84.30;;;;;;10752038;33;20017;-78
2023/09/20 08:00:58;;;;;;;5.07;1.98;;;23.30;84.30;;;;;;10750317;33;20012;-77
2023/09/20 08:07:01;;;;;;;4.50;1.73;;;23.30;84.70;;;;;;10750082;33;20056;-78
2023/09/20 08:13:05;;;;;;;1.58;0.95;;;23.50;84.40;;;;;;10751445;33;20021;-78
2023/09/20 08:19:16;;;;;;;2.30;1.40;;;23.80;84.20;;;;;;10747026;33;20059;-78
2023/09/20 09:03:27;;;;;;;3.97;2.05;;;24.40;82.40;;;;;;10766394;33;20028;-77
2023/09/20 09:09:29;;;;;;;3.85;1.85;;;24.50;81.70;;;;;;10756152;33;20051;-77
2023/09/20 09:15:31;;;;;;;7.72;2.95;;;24.50;81.70;;;;;;10755115;33;20025;-76
2023/09/20 09:21:53;;;;;;;8.18;1.33;;;24.50;82.10;;;;;;10755412;33;20488;-78
2023/09/20 09:27:55;;;;;;;4.25;1.50;;;24.70;81.60;;;;;;10753614;33;20013;-77
2023/09/20 09:34:13;;;;;;;3.50;1.83;;;24.80;81.20;;;;;;10761846;33;20033;-76
2023/09/20 09:40:15;;;;;;;;;;;25.00;80.40;;;;;;10753750;33;20047;-77
2023/09/20 09:46:17;;;;;;;3.47;2.03;;;25.00;80.60;;;;;;10754221;33;19946;-78
2023/09/20 09:52:24;;;;;;;3.65;1.67;;;25.00;80.60;;;;;;10753917;33;20318;-76
2023/09/20 09:58:26;;;;;;;4.80;2.35;;;25.00;80.40;;;;;;10754449;33;20013;-76
2023/09/20 10:04:33;;;;;;;5.37;2.25;;;25.00;80.40;;;;;;10753769;33;20044;-77
2023/09/20 10:10:35;;;;;;;7.47;2.78;;;25.20;80.00;;;;;;10753552;33;20012;-77
2023/09/20 10:16:42;;;;;;;8.20;2.62;;;25.30;79.50;;;;;;10754153;33;20022;-76
2023/09/20 10:22:47;;;;;;;7.83;2.33;;;25.30;79.40;;;;;;10753337;33;20020;-76
2023/09/20 10:28:53;;;;;;;4.78;2.05;;;25.40;78.80;;;;;;10753309;33;20042;-75
2023/09/20 10:35:39;;;;;;;10.30;2.75;;;25.60;78.60;;;;;;10748812;33;20016;-79
2023/09/20 10:41:40;;;;;;;8.23;2.80;;;25.70;78.00;;;;;;10752675;33;20086;-80
2023/09/20 10:47:48;;;;;;;7.93;2.55;;;25.80;77.90;;;;;;10751467;33;20055;-79
2023/09/20 10:53:50;;;;;;;;;;;26.00;77.50;;;;;;10747197;33;20059;-78
2023/09/20 10:59:53;;;;;;;7.53;2.97;;;26.30;76.80;;;;;;10752596;33;19924;-77
2023/09/20 11:05:56;;;;;;;9.98;2.80;;;26.40;75.80;;;;;;10748227;33;20024;-79
2023/09/20 11:12:04;;;;;;;9.45;3.92;;;26.50;75.70;;;;;;10750292;33;20035;-78
2023/09/20 11:18:06;;;;;;;;;;;26.80;75.20;;;;;;10751585;33;20024;-77
2023/09/20 11:24:10;;;;;;;14.60;3.33;;;27.10;74.50;;;;;;10762433;33;20176;-77
2023/09/20 11:30:13;;;;;;;7.70;2.37;;;27.30;73.80;;;;;;10750674;33;20032;-74
2023/09/20 11:36:19;;;;;;;7.40;3.12;;;27.40;73.30;;;;;;10751384;33;20047;-77
2023/09/20 11:42:31;;;;;;;12.90;4.15;;;27.50;73.10;;;;;;10751030;33;20036;-77
2023/09/20 11:48:33;;;;;;;5.57;2.40;;;27.10;73.80;;;;;;10750956;33;20322;-75
2023/09/20 11:54:38;;;;;;;5.90;2.67;;;27.40;73.30;;;;;;10750686;33;20387;-76
2023/09/20 12:00:44;;;;;;;6.55;2.75;;;27.70;72.50;;;;;;10750624;33;20047;-75
2023/09/20 12:06:47;;;;;;;5.57;2.93;;;27.80;72.30;;;;;;10753078;33;20016;-76
2023/09/20 12:12:51;;;;;;;4.22;1.83;;;27.70;72.00;;;;;;10756139;33;20037;-76
2023/09/20 12:18:58;;;;;;;10.40;2.62;;;27.70;71.90;;;;;;10757255;33;20047;-77
2023/09/20 12:25:03;;;;;;;6.65;2.97;;;27.80;71.60;;;;;;10753088;33;20028;-76
2023/09/20 12:31:19;;;;;;;4.72;2.37;;;27.80;70.60;;;;;;10755398;33;20025;-78
2023/09/20 12:37:21;;;;;;;5.85;2.97;;;27.50;70.70;;;;;;10756978;33;20020;-76
2023/09/20 12:43:23;;;;;;;5.68;2.60;;;27.30;71.30;;;;;;10754764;33;20029;-78
2023/09/20 12:49:25;;;;;;;10.00;3.35;;;27.40;70.90;;;;;;10756162;33;20264;-75
2023/09/20 12:55:28;;;;;;;5.55;2.53;;;27.50;70.30;;;;;;10751416;33;20021;-75
2023/09/20 13:01:31;;;;;;;9.45;2.65;;;27.60;70.40;;;;;;10755270;33;20020;-76
2023/09/20 13:07:34;;;;;;;6.18;3.00;;;27.70;69.90;;;;;;10755302;33;20025;-76
2023/09/20 13:13:40;;;;;;;5.45;2.40;;;27.50;69.80;;;;;;10754586;33;20040;-75
2023/09/20 13:20:04;;;;;;;4.43;2.35;;;27.40;70.00;;;;;;10753106;33;20032;-76
2023/09/20 13:26:06;;;;;;;10.30;2.35;;;27.50;70.00;;;;;;10754459;33;20051;-76
2023/09/20 13:32:08;;;;;;;9.23;3.15;;;27.40;70.20;;;;;;10755502;33;20024;-77
2023/09/20 13:38:13;;;;;;;9.52;2.65;;;27.40;70.30;;;;;;10753870;33;20071;-77
2023/09/20 13:44:17;;;;;;;4.15;2.58;;;27.50;70.10;;;;;;10755547;33;20051;-77
2023/09/20 13:50:20;;;;;;;6.30;2.95;;;27.50;69.90;;;;;;10750903;32;20047;-77
2023/09/20 13:56:48;;;;;;;8.77;2.95;;;27.50;69.30;;;;;;10753624;33;20020;-78
2023/09/20 14:02:50;;;;;;;;;;;27.60;69.10;;;;;;10754682;33;20196;-77
2023/09/20 14:08:54;;;;;;;5.75;3.58;;;27.60;69.20;;;;;;10750885;33;19943;-78
2023/09/20 14:14:57;;;;;;;5.97;2.53;;;27.80;68.80;;;;;;10752168;33;20040;-77
2023/09/20 14:21:03;;;;;;;15.82;4.12;;;27.80;69.30;;;;;;10753403;33;20433;-77
2023/09/20 14:27:05;;;;;;;8.80;3.70;;;27.60;69.40;;;;;;10753215;33;20025;-78
2023/09/20 14:33:08;;;;;;;6.62;3.20;;;27.70;69.60;;;;;;10753972;33;20039;-77
2023/09/20 14:39:10;;;;;;;5.97;3.00;;;27.80;69.40;;;;;;10753032;33;20157;-77
2023/09/20 14:45:16;;;;;;;5.00;2.83;;;27.70;69.40;;;;;;10752633;33;20016;-78
2023/09/20 14:51:18;;;;;;;8.90;2.62;;;27.60;69.70;;;;;;10718644;27;20029;-78
2023/09/20 14:57:20;;;;;;;5.47;2.83;;;27.40;69.90;;;;;;10714999;33;20025;-78
2023/09/20 15:03:23;;;;;;;6.07;3.12;;;27.30;70.00;;;;;;10715252;33;20399;-78
2023/09/20 15:09:25;;;;;;;6.37;2.72;;;27.30;70.20;;;;;;10712424;33;20033;-77
2023/09/20 15:15:34;;;;;;;10.30;3.37;;;27.30;70.20;;;;;;10712760;33;20025;-78
2023/09/20 15:21:36;;;;;;;6.25;2.55;;;27.30;70.00;;;;;;10715848;33;20399;-77
2023/09/20 15:27:38;;;;;;;8.02;3.17;;;27.30;70.10;;;;;;10716419;33;20040;-77
2023/09/20 15:33:41;;;;;;;11.05;3.33;;;27.50;69.90;;;;;;10715621;33;20429;-76
2023/09/20 15:39:43;;;;;;;9.70;4.55;;;27.80;69.30;;;;;;10714671;33;20013;-78
2023/09/20 15:45:45;;;;;;;6.60;3.28;;;27.70;69.30;;;;;;10704813;33;20033;-77
2023/09/20 15:51:47;;;;;;;5.80;2.90;;;27.40;69.50;;;;;;10715260;33;20316;-77
2023/09/20 15:57:49;;;;;;;6.57;3.75;;;27.40;69.70;;;;;;10715323;33;20355;-77
2023/09/20 16:03:51;;;;;;;6.70;3.45;;;27.30;70.30;;;;;;10714977;33;20473;-78
2023/09/20 16:09:54;;;;;;;4.55;2.87;;;27.10;70.70;;;;;;10714694;33;20030;-78
2023/09/20 16:15:58;;;;;;;10.45;2.65;;;26.90;70.90;;;;;;10724223;33;20041;-78
2023/09/20 16:22:01;;;;;;;6.15;3.05;;;26.80;71.20;;;;;;10712790;33;20039;-77
2023/09/20 16:28:03;;;;;;;7.43;2.97;;;26.70;71.50;;;;;;10715975;33;20025;-77
2023/09/20 16:34:08;;;;;;;7.78;3.25;;;26.70;71.70;;;;;;10714704;32;20068;-77
2023/09/20 16:40:14;;;;;;;5.07;2.47;;;26.60;71.90;;;;;;10712478;33;20083;-77
2023/09/20 16:46:16;;;;;;;4.68;2.87;;;26.50;72.10;;;;;;10715178;33;20033;-78
2023/09/20 16:52:18;;;;;;;4.70;2.20;;;26.40;72.30;;;;;;10715704;33;20052;-77
2023/09/20 16:58:21;;;;;;;5.30;2.75;;;26.30;72.60;;;;;;10719790;33;20458;-77
2023/09/20 17:04:25;;;;;;;6.60;2.72;;;26.30;72.80;;;;;;10717738;33;20029;-77
2023/09/20 17:10:28;;;;;;;2.78;1.85;;;26.30;73.00;;;;;;10718916;33;20430;-77
2023/09/20 17:16:31;;;;;;;11.55;3.87;;;26.20;73.30;;;;;;10714405;33;20029;-77
2023/09/20 17:22:33;;;;;;;11.88;2.85;;;26.20;73.40;;;;;;10715105;33;20449;-77
2023/09/20 17:28:36;;;;;;;4.95;3.25;;;26.10;73.50;;;;;;10718351;33;20017;-77
2023/09/20 17:34:40;;;;;;;6.40;2.22;;;26.10;73.70;;;;;;10717931;33;20024;-77
2023/09/20 17:40:49;;;;;;;6.53;2.78;;;26.00;73.90;;;;;;10719229;33;20048;-77
2023/09/20 17:46:52;;;;;;;8.80;2.78;;;26.00;73.90;;;;;;10715134;33;20497;-76
2023/09/20 17:52:54;;;;;;;9.07;3.70;;;26.00;74.00;;;;;;10718791;33;20013;-76
2023/09/20 17:58:57;;;;;;;11.82;3.45;;;26.00;74.20;;;;;;10716768;32;20058;-76
2023/09/20 18:05:00;;;;;;;5.50;2.50;;;25.90;74.30;;;;;;10716242;33;20048;-77
2023/09/20 18:11:02;;;;;;;6.35;3.22;;;25.90;74.40;;;;;;10685103;33;20076;-76
2023/09/20 18:17:04;;;;;;;6.85;2.62;;;25.90;74.50;;;;;;10676046;33;20056;-76
2023/09/20 18:23:09;;;;;;;4.37;2.37;;;25.80;74.60;;;;;;10704293;33;20028;-76
2023/09/20 18:29:12;;;;;;;5.65;2.97;;;25.80;74.70;;;;;;10716355;33;20017;-74
2023/09/20 18:35:17;;;;;;;9.93;3.60;;;25.80;74.90;;;;;;10716896;33;20025;-73
2023/09/20 18:41:19;;;;;;;6.90;3.50;;;25.60;75.00;;;;;;10713743;33;20391;-75
2023/09/20 18:47:21;;;;;;;3.40;2.05;;;25.40;75.00;;;;;;10715299;33;20020;-74
2023/09/20 18:53:24;;;;;;;2.37;1.52;;;25.20;75.20;;;;;;10713648;33;20558;-74
2023/09/20 18:59:26;;;;;;;2.58;1.90;;;25.00;75.50;;;;;;10711816;33;20032;-76
2023/09/20 19:05:33;;;;;;;3.87;2.00;;;24.90;75.50;;;;;;10717264;33;20017;-77
2023/09/20 19:11:35;;;;;;;5.57;1.42;;;24.80;75.70;;;;;;10715163;33;20033;-76
2023/09/20 19:17:40;;;;;;;3.72;1.80;;;24.80;76.00;;;;;;10715951;33;20008;-77
2023/09/20 19:23:42;;;;;;;3.65;1.90;;;24.80;76.20;;;;;;10721909;33;20091;-77
2023/09/20 19:29:44;;;;;;;2.97;1.60;;;24.80;76.40;;;;;;10715839;33;20041;-77
2023/09/20 19:35:47;;;;;;;3.75;1.77;;;24.70;76.50;;;;;;10714772;33;20415;-76
2023/09/20 19:41:49;;;;;;;2.00;1.27;;;24.60;76.50;;;;;;10716128;33;20055;-76
2023/09/20 19:47:52;;;;;;;4.60;1.80;;;24.30;76.50;;;;;;10714111;33;20075;-77
2023/09/20 19:53:55;;;;;;;5.18;2.08;;;24.30;76.60;;;;;;10725768;33;20033;-76
2023/09/20 20:00:14;;;;;;;5.07;1.85;;;24.30;76.60;;;;;;10714833;33;20327;-69
2023/09/20 20:06:17;;;;;;;3.00;1.90;;;24.30;76.60;;;;;;10713889;33;20021;-69
2023/09/20 20:12:19;;;;;;;3.80;1.80;;;24.30;76.80;;;;;;10724906;33;20407;-69
2023/09/20 20:18:24;;;;;;;2.75;1.80;;;24.30;76.80;;;;;;10713703;33;20029;-70
2023/09/20 20:24:28;;;;;;;3.42;1.92;;;24.30;76.90;;;;;;10711420;33;20052;-70
2023/09/20 20:30:30;;;;;;;3.30;1.87;;;24.30;76.90;;;;;;10719987;33;20044;-70
2023/09/20 20:36:34;;;;;;;3.53;1.55;;;24.30;77.00;;;;;;10719358;33;20064;-70
2023/09/20 20:42:37;;;;;;;4.85;1.35;;;24.30;77.20;;;;;;10720697;33;20332;-70
2023/09/20 20:48:39;;;;;;;5.30;1.67;;;24.20;77.30;;;;;;10718870;33;20029;-69
2023/09/20 20:54:41;;;;;;;5.05;2.10;;;24.20;77.20;;;;;;10719227;33;20399;-69
2023/09/20 21:00:51;;;;;;;2.20;1.25;;;24.20;77.30;;;;;;10717796;33;20045;-69
2023/09/20 21:06:53;;;;;;;2.47;1.45;;;24.20;77.30;;;;;;10720237;33;20075;-68
2023/09/20 21:12:55;;;;;;;1.75;1.12;;;24.10;77.30;;;;;;10719509;33;20407;-69
2023/09/20 21:18:57;;;;;;;3.53;1.27;;;24.20;77.30;;;;;;10718686;33;20021;-69
2023/09/20 21:25:00;;;;;;;2.45;1.55;;;24.10;77.40;;;;;;10719248;32;20037;-69
2023/09/20 21:31:09;;;;;;;3.83;1.75;;;24.10;77.80;;;;;;10718488;33;20057;-69
2023/09/20 21:37:12;;;;;;;4.93;2.08;;;24.10;78.10;;;;;;10727182;33;20045;-69
2023/09/20 21:43:14;;;;;;;11.93;2.70;;;24.00;78.30;;;;;;10703673;33;20028;-69
2023/09/20 21:49:16;;;;;;;4.25;1.90;;;24.00;78.60;;;;;;10682182;33;20029;-69
2023/09/20 21:55:19;;;;;;;2.10;1.33;;;23.90;78.60;;;;;;10682416;33;20048;-69
2023/09/20 22:01:22;;;;;;;2.15;1.52;;;23.80;79.00;;;;;;10682102;33;20052;-69
2023/09/20 22:07:24;;;;;;;4.37;2.45;;;23.80;79.80;;;;;;10681474;33;20088;-69
2023/09/20 22:13:28;;;;;;;5.18;1.55;;;23.80;79.70;;;;;;10681219;33;20010;-70
2023/09/20 22:19:30;;;;;;;9.82;2.33;;;23.90;79.60;;;;;;10681429;33;20325;-69
2023/09/20 22:25:32;;;;;;;4.28;2.45;;;23.90;79.50;;;;;;10692547;33;20099;-71
2023/09/20 22:31:35;;;;;;;2.65;1.95;;;23.90;79.50;;;;;;10681923;33;20048;-71
2023/09/20 22:37:41;;;;;;;3.67;2.20;;;23.80;79.60;;;;;;10691703;33;20060;-70
2023/09/20 22:43:44;;;;;;;4.03;1.87;;;23.80;79.70;;;;;;10680270;33;20052;-70
2023/09/20 22:49:50;;;;;;;3.30;2.15;;;23.80;80.20;;;;;;10705802;27;20063;-70
2023/09/20 22:55:52;;;;;;;3.58;2.20;;;23.70;80.70;;;;;;10716180;33;20028;-71
2023/09/20 23:01:54;;;;;;;3.45;2.42;;;23.70;80.50;;;;;;10713263;32;20336;-71
2023/09/20 23:07:57;;;;;;;4.55;3.03;;;23.60;80.50;;;;;;10714920;33;20056;-70
2023/09/20 23:14:01;;;;;;;2.05;1.62;;;23.50;80.50;;;;;;10715627;33;20060;-70
2023/09/20 23:20:07;;;;;;;3.92;1.90;;;23.50;80.70;;;;;;10715535;33;20056;-71
2023/09/20 23:26:10;;;;;;;2.95;2.03;;;23.50;80.90;;;;;;10715325;33;20032;-71
2023/09/20 23:32:15;;;;;;;5.05;2.22;;;23.50;80.70;;;;;;10711918;33;20024;-71
2023/09/20 23:38:21;;;;;;;6.25;2.85;;;23.30;80.80;;;;;;10715575;33;20335;-70
2023/09/20 23:44:23;;;;;;;5.05;2.92;;;23.20;80.90;;;;;;10716628;33;20487;-70
2023/09/20 23:50:25;;;;;;;6.15;3.03;;;23.20;81.00;;;;;;10714780;33;20017;-69
2023/09/20 23:56:27;;;;;;;5.95;3.15;;;23.30;80.80;;;;;;10714581;33;20021;-70
